Terminal Aerodrome Forecast
Issued by NWS

Home | Current Version | Previous Version | Text Only | Print | Product List | Glossary Off
Versions: 1 2 3 4 5 6 7 8 9 10 11 12 13 14 15

000
FTUS43 KOAX 241403 AAA
TAFCDR
TAF AMD
KCDR 241403Z 2414/2512 28011KT P6SM SCT200
     FM241800 28018G26KT P6SM SCT100
     FM250200 32010KT P6SM SCT100
     FM250400 34006KT P6SM VCSH SCT007 BKN050=

USA.gov is the U.S. government's official web portal to all federal, state and local government web resources and services.